createdAt,value
2018-03-17T00:00:26.616Z,3.20
2018-03-17T00:02:58.498Z,3.20
2018-03-17T00:05:30.391Z,3.20
2018-03-17T00:08:02.273Z,3.20
2018-03-17T00:10:34.912Z,3.10
2018-03-17T00:13:06.807Z,3.10
2018-03-17T00:15:38.696Z,3.10
2018-03-17T00:18:10.595Z,3.10
2018-03-17T00:20:42.479Z,3.00
2018-03-17T00:23:14.376Z,3.00
2018-03-17T00:25:46.873Z,2.90
2018-03-17T00:28:19.015Z,2.90
2018-03-17T00:30:50.896Z,2.90
2018-03-17T00:33:22.781Z,2.80
2018-03-17T00:35:54.649Z,2.80
2018-03-17T00:38:26.536Z,2.70
2018-03-17T00:40:59.183Z,2.60
2018-03-17T00:43:31.075Z,2.60
2018-03-17T00:46:03.702Z,2.60
2018-03-17T00:48:35.615Z,2.50
2018-03-17T00:51:08.267Z,2.50
2018-03-17T00:53:40.156Z,2.50
2018-03-17T00:56:12.811Z,2.50
2018-03-17T00:58:44.718Z,2.50
2018-03-17T01:01:16.595Z,2.50
2018-03-17T01:03:48.491Z,2.40
2018-03-17T01:06:20.369Z,2.50
2018-03-17T01:08:53.016Z,2.40
2018-03-17T01:11:24.914Z,2.40
2018-03-17T01:13:57.911Z,2.30
2018-03-17T01:16:30.614Z,2.30
2018-03-17T01:19:02.503Z,2.30
2018-03-17T01:21:34.386Z,2.30
2018-03-17T01:24:06.275Z,2.30
2018-03-17T01:26:38.175Z,2.20
2018-03-17T01:29:10.064Z,2.20
2018-03-17T01:31:41.937Z,2.10
2018-03-17T01:34:14.605Z,2.10
2018-03-17T01:36:47.240Z,2.10
2018-03-17T01:39:19.131Z,2.10
2018-03-17T01:41:51.013Z,2.10
2018-03-17T01:44:23.662Z,2.00
2018-03-17T01:46:55.767Z,2.10
2018-03-17T01:49:27.656Z,2.10
2018-03-17T01:51:59.530Z,2.00
2018-03-17T01:54:31.411Z,2.00
2018-03-17T01:57:03.291Z,2.00
2018-03-17T01:59:35.944Z,2.00
2018-03-17T02:02:07.819Z,2.00
2018-03-17T02:04:39.711Z,2.00
2018-03-17T02:07:11.595Z,2.00
2018-03-17T02:09:43.471Z,2.00
2018-03-17T02:12:16.115Z,1.90
2018-03-17T02:14:47.999Z,1.90
2018-03-17T02:17:19.876Z,1.90
2018-03-17T02:19:51.763Z,1.90
2018-03-17T02:22:24.402Z,1.90
2018-03-17T02:24:56.296Z,1.90
2018-03-17T02:27:28.177Z,1.90
2018-03-17T02:30:01.070Z,1.90
2018-03-17T02:32:32.943Z,1.90
2018-03-17T02:35:04.819Z,1.80
2018-03-17T02:37:36.700Z,1.90
2018-03-17T02:40:08.952Z,1.80
2018-03-17T02:42:41.084Z,1.80
2018-03-17T02:45:13.244Z,1.80
2018-03-17T02:47:45.124Z,1.70
2018-03-17T02:50:17.011Z,1.70
2018-03-17T02:52:48.893Z,1.60
2018-03-17T02:55:20.784Z,1.50
2018-03-17T02:57:53.419Z,1.50
2018-03-17T03:00:25.311Z,1.40
2018-03-17T03:02:57.952Z,1.50
2018-03-17T03:05:29.855Z,1.40
2018-03-17T03:08:01.737Z,1.50
2018-03-17T03:10:33.888Z,1.40
2018-03-17T03:13:06.259Z,1.30
2018-03-17T03:15:38.157Z,1.30
2018-03-17T03:18:10.287Z,1.10
2018-03-17T03:20:42.176Z,1.10
2018-03-17T03:23:14.087Z,1.00
2018-03-17T03:25:46.591Z,1.00
2018-03-17T03:28:18.461Z,1.00
2018-03-17T03:30:50.351Z,0.90
2018-03-17T03:33:22.220Z,0.90
2018-03-17T03:35:54.106Z,0.90
2018-03-17T03:38:26.735Z,0.80
2018-03-17T03:40:58.868Z,0.80
2018-03-17T03:43:30.731Z,0.80
2018-03-17T03:46:02.891Z,0.80
2018-03-17T03:48:34.765Z,0.80
2018-03-17T03:51:06.705Z,0.80
2018-03-17T03:53:38.575Z,0.80
2018-03-17T03:56:10.457Z,0.80
2018-03-17T03:58:42.338Z,0.80
2018-03-17T04:01:14.220Z,0.80
2018-03-17T04:03:46.090Z,0.80
2018-03-17T04:06:18.743Z,0.80
2018-03-17T04:08:50.615Z,0.80
2018-03-17T04:11:22.507Z,0.80
2018-03-17T04:13:55.143Z,0.80
2018-03-17T04:16:27.040Z,0.70
2018-03-17T04:18:59.684Z,0.80
2018-03-17T04:21:31.575Z,0.80
2018-03-17T04:24:04.215Z,0.80
2018-03-17T04:26:36.103Z,0.70
2018-03-17T04:29:09.017Z,0.70
2018-03-17T04:31:40.895Z,0.70
2018-03-17T04:34:12.777Z,0.70
2018-03-17T04:36:44.660Z,0.70
2018-03-17T04:39:16.527Z,0.70
2018-03-17T04:41:49.187Z,0.70
2018-03-17T04:44:21.062Z,0.60
2018-03-17T04:46:53.735Z,0.70
2018-03-17T04:49:25.948Z,0.70
2018-03-17T04:51:57.847Z,0.70
2018-03-17T04:54:30.061Z,0.70
2018-03-17T04:57:01.955Z,0.70
2018-03-17T04:59:33.835Z,0.70
2018-03-17T05:02:05.727Z,0.70
2018-03-17T05:04:38.375Z,0.60
2018-03-17T05:07:10.259Z,0.60
2018-03-17T05:09:42.897Z,0.60
2018-03-17T05:12:15.019Z,0.60
2018-03-17T05:14:47.189Z,0.60
2018-03-17T05:17:19.079Z,0.50
2018-03-17T05:19:50.962Z,0.50
2018-03-17T05:22:22.854Z,0.50
2018-03-17T05:24:55.490Z,0.50
2018-03-17T05:27:27.388Z,0.50
2018-03-17T05:30:00.025Z,0.50
2018-03-17T05:32:31.914Z,0.50
2018-03-17T05:35:04.555Z,0.40
2018-03-17T05:37:36.689Z,0.40
2018-03-17T05:40:08.573Z,0.40
2018-03-17T05:42:40.452Z,0.40
2018-03-17T05:45:12.572Z,0.40
2018-03-17T05:47:44.532Z,0.40
2018-03-17T05:50:17.176Z,0.40
2018-03-17T05:52:50.658Z,0.40
2018-03-17T05:55:22.538Z,0.40
2018-03-17T05:57:54.426Z,0.40
2018-03-17T06:00:27.081Z,0.40
2018-03-17T06:02:59.767Z,0.40
2018-03-17T06:05:32.435Z,0.40
2018-03-17T06:08:04.300Z,0.40
2018-03-17T06:10:36.978Z,0.40
2018-03-17T06:13:08.839Z,0.40
2018-03-17T06:15:41.491Z,0.40
2018-03-17T06:18:13.354Z,0.40
2018-03-17T06:20:45.239Z,0.40
2018-03-17T06:23:17.883Z,0.40
2018-03-17T06:25:49.795Z,0.40
2018-03-17T06:28:21.673Z,0.40
2018-03-17T06:30:53.567Z,0.40
2018-03-17T06:33:25.471Z,0.40
2018-03-17T06:35:58.193Z,0.40
2018-03-17T06:38:30.067Z,0.40
2018-03-17T06:41:01.985Z,0.40
2018-03-17T06:43:33.852Z,0.40
2018-03-17T06:46:05.758Z,0.40
2018-03-17T06:48:37.623Z,0.40
2018-03-17T06:51:09.518Z,0.40
2018-03-17T06:53:41.395Z,0.40
2018-03-17T06:56:13.291Z,0.30
2018-03-17T06:58:45.163Z,0.20
2018-03-17T07:01:17.060Z,0.20
2018-03-17T07:03:48.936Z,0.10
2018-03-17T07:06:21.127Z,0.10
2018-03-17T07:08:53.011Z,0.00
2018-03-17T07:11:24.906Z,-0.10
2018-03-17T07:13:56.787Z,-0.10
2018-03-17T07:16:28.689Z,-0.10
2018-03-17T07:19:00.575Z,-0.10
2018-03-17T07:21:33.521Z,-0.20
2018-03-17T07:24:05.647Z,-0.20
2018-03-17T07:26:37.543Z,-0.20
2018-03-17T07:29:09.411Z,-0.20
2018-03-17T07:31:41.594Z,-0.20
2018-03-17T07:34:13.509Z,-0.30
2018-03-17T07:36:45.417Z,-0.30
2018-03-17T07:39:17.330Z,-0.30
2018-03-17T07:41:49.471Z,-0.20
2018-03-17T07:44:21.354Z,-0.20
2018-03-17T07:46:53.497Z,-0.20
2018-03-17T07:49:25.400Z,-0.20
2018-03-17T07:51:57.308Z,-0.10
2018-03-17T07:54:29.948Z,-0.10
2018-03-17T07:57:01.844Z,-0.10
2018-03-17T07:59:34.479Z,-0.10
2018-03-17T08:02:06.394Z,-0.10
2018-03-17T08:04:39.040Z,-0.20
2018-03-17T08:07:10.955Z,-0.20
2018-03-17T08:09:42.836Z,-0.20
2018-03-17T08:12:14.962Z,-0.20
2018-03-17T08:14:46.836Z,-0.20
2018-03-17T08:17:18.751Z,-0.20
2018-03-17T08:19:50.632Z,-0.20
2018-03-17T08:22:23.360Z,-0.20
2018-03-17T08:24:55.951Z,-0.20
2018-03-17T08:27:27.852Z,-0.20
2018-03-17T08:30:00.507Z,-0.20
2018-03-17T08:32:32.405Z,-0.20
2018-03-17T08:35:04.562Z,-0.20
2018-03-17T08:37:36.476Z,-0.20
2018-03-17T08:40:08.351Z,-0.20
2018-03-17T08:42:40.282Z,-0.20
2018-03-17T08:45:12.411Z,-0.10
2018-03-17T08:47:44.310Z,-0.10
2018-03-17T08:50:16.193Z,-0.10
2018-03-17T08:52:48.107Z,-0.10
2018-03-17T08:55:19.971Z,-0.10
2018-03-17T08:57:51.879Z,-0.10
2018-03-17T09:00:23.759Z,-0.10
2018-03-17T09:02:56.499Z,0.00
2018-03-17T09:05:29.144Z,0.00
2018-03-17T09:08:01.028Z,0.00
2018-03-17T09:10:33.157Z,0.00
2018-03-17T09:13:05.073Z,0.00
2018-03-17T09:15:37.201Z,-0.10
2018-03-17T09:18:09.090Z,-0.10
2018-03-17T09:20:40.980Z,-0.10
2018-03-17T09:23:13.655Z,-0.10
2018-03-17T09:25:45.526Z,-0.10
2018-03-17T09:28:18.179Z,-0.10
2018-03-17T09:30:50.388Z,-0.10
2018-03-17T09:33:22.285Z,-0.10
2018-03-17T09:35:54.227Z,-0.20
2018-03-17T09:38:26.138Z,-0.20
2018-03-17T09:40:58.341Z,-0.20
2018-03-17T09:43:30.254Z,-0.20
2018-03-17T09:46:02.129Z,-0.20
2018-03-17T09:48:34.012Z,-0.20
2018-03-17T09:51:05.895Z,-0.20
2018-03-17T09:53:37.787Z,-0.20
2018-03-17T09:56:09.660Z,-0.20
2018-03-17T09:58:41.575Z,-0.20
2018-03-17T10:01:13.476Z,-0.20
2018-03-17T10:03:45.368Z,-0.20
2018-03-17T10:06:18.004Z,-0.10
2018-03-17T10:08:50.237Z,-0.10
2018-03-17T10:11:22.388Z,-0.10
2018-03-17T10:13:54.291Z,-0.10
2018-03-17T10:16:26.163Z,-0.10
2018-03-17T10:18:58.051Z,-0.20
2018-03-17T10:21:30.727Z,-0.30
2018-03-17T10:24:03.387Z,-0.20
2018-03-17T10:26:35.263Z,-0.20
2018-03-17T10:29:07.925Z,-0.20
2018-03-17T10:31:40.028Z,-0.20
2018-03-17T10:34:12.195Z,-0.10
2018-03-17T10:36:44.383Z,-0.10
2018-03-17T10:39:16.268Z,-0.20
2018-03-17T10:41:48.436Z,-0.30
2018-03-17T10:44:20.319Z,-0.30
2018-03-17T10:46:52.186Z,-0.40
2018-03-17T10:49:25.094Z,-0.30
2018-03-17T10:51:56.980Z,-0.40
2018-03-17T10:54:28.879Z,-0.30
2018-03-17T10:57:00.765Z,-0.20
2018-03-17T10:59:33.411Z,-0.20
2018-03-17T11:02:05.278Z,-0.20
2018-03-17T11:04:37.171Z,-0.20
2018-03-17T11:07:09.043Z,-0.20
2018-03-17T11:09:40.964Z,-0.20
2018-03-17T11:12:12.840Z,-0.20
2018-03-17T11:14:45.551Z,-0.20
2018-03-17T11:17:17.428Z,-0.20
2018-03-17T11:19:49.330Z,-0.20
2018-03-17T11:22:22.058Z,-0.20
2018-03-17T11:24:54.201Z,-0.30
2018-03-17T11:27:26.095Z,-0.20
2018-03-17T11:29:58.369Z,-0.20
2018-03-17T11:32:30.503Z,-0.30
2018-03-17T11:35:02.393Z,-0.30
2018-03-17T11:37:35.295Z,-0.30
2018-03-17T11:40:08.150Z,-0.20
2018-03-17T11:42:40.013Z,-0.20
2018-03-17T11:45:11.939Z,-0.10
2018-03-17T11:47:43.835Z,-0.10
2018-03-17T11:50:15.731Z,-0.10
2018-03-17T11:52:47.614Z,-0.10
2018-03-17T11:55:20.263Z,0.00
2018-03-17T11:57:52.156Z,-0.10
2018-03-17T12:00:24.061Z,-0.10
2018-03-17T12:02:56.386Z,-0.20
2018-03-17T12:05:28.282Z,-0.20
2018-03-17T12:08:00.155Z,-0.30
2018-03-17T12:10:32.051Z,-0.30
2018-03-17T12:13:04.695Z,-0.20
2018-03-17T12:15:36.750Z,-0.20
2018-03-17T12:18:08.680Z,-0.10
2018-03-17T12:20:40.575Z,-0.10
2018-03-17T12:23:12.955Z,-0.10
2018-03-17T12:25:44.843Z,-0.20
2018-03-17T12:28:17.980Z,-0.30
2018-03-17T12:30:49.869Z,-0.30
2018-03-17T12:33:21.832Z,-0.30
2018-03-17T12:35:53.922Z,-0.20
2018-03-17T12:38:27.087Z,-0.20
2018-03-17T12:40:59.237Z,-0.20
2018-03-17T12:43:31.110Z,-0.20
2018-03-17T12:46:03.004Z,-0.30
2018-03-17T12:48:36.280Z,-0.30
2018-03-17T12:51:08.954Z,-0.30
2018-03-17T12:53:40.865Z,-0.30
2018-03-17T12:56:13.191Z,-0.20
2018-03-17T12:58:45.085Z,-0.20
2018-03-17T13:01:16.980Z,-0.10
2018-03-17T13:03:49.226Z,-0.20
2018-03-17T13:06:21.851Z,-0.30
2018-03-17T13:08:53.731Z,-0.30
2018-03-17T13:11:26.241Z,-0.30
2018-03-17T13:13:58.115Z,-0.30
2018-03-17T13:16:30.008Z,-0.30
2018-03-17T13:19:01.902Z,-0.40
2018-03-17T13:21:34.354Z,-0.40
2018-03-17T13:24:08.886Z,-0.30
2018-03-17T13:26:41.777Z,-0.40
2018-03-17T13:29:13.702Z,-0.40
2018-03-17T13:31:46.679Z,-0.40
2018-03-17T13:34:18.575Z,-0.40
2018-03-17T13:37:03.149Z,-0.40
2018-03-17T13:39:35.309Z,-0.40
2018-03-17T13:42:07.344Z,-0.50
2018-03-17T13:44:39.220Z,-0.50
2018-03-17T13:47:12.115Z,-0.50
2018-03-17T13:49:43.984Z,-0.40
2018-03-17T13:52:17.068Z,-0.40
2018-03-17T13:54:49.236Z,-0.30
2018-03-17T13:57:21.128Z,-0.30
2018-03-17T13:59:53.118Z,-0.40
2018-03-17T14:02:25.003Z,-0.40
2018-03-17T14:04:57.638Z,-0.50
2018-03-17T14:07:29.527Z,-0.50
2018-03-17T14:10:02.202Z,-0.70
2018-03-17T14:12:34.132Z,-0.60
2018-03-17T14:15:06.019Z,-0.60
2018-03-17T14:17:37.935Z,-0.60
2018-03-17T14:20:09.807Z,-0.60
2018-03-17T14:22:41.699Z,-0.60
2018-03-17T14:25:13.572Z,-0.60
2018-03-17T14:27:46.475Z,-0.80
2018-03-17T14:30:18.412Z,-0.70
2018-03-17T14:32:50.258Z,-0.60
2018-03-17T14:35:22.470Z,-0.60
2018-03-17T14:37:54.354Z,-0.60
2018-03-17T14:40:26.230Z,-0.60
2018-03-17T14:42:58.127Z,-0.60
2018-03-17T14:45:30.809Z,-0.50
2018-03-17T14:48:03.458Z,-0.60
2018-03-17T14:50:35.347Z,-0.60
2018-03-17T14:53:08.000Z,-0.60
2018-03-17T14:55:40.099Z,-0.60
2018-03-17T14:58:11.992Z,-0.60
2018-03-17T15:00:43.867Z,-0.50
2018-03-17T15:03:15.776Z,-0.60
2018-03-17T15:05:48.490Z,-0.60
2018-03-17T15:08:20.381Z,-0.60
2018-03-17T15:10:52.259Z,-0.60
2018-03-17T15:13:24.157Z,-0.60
2018-03-17T15:15:56.035Z,-0.60
2018-03-17T15:18:27.934Z,-0.60
2018-03-17T15:20:59.816Z,-0.70
2018-03-17T15:23:32.480Z,-0.70
2018-03-17T15:26:05.122Z,-0.70
2018-03-17T15:28:37.814Z,-0.70
2018-03-17T15:31:09.702Z,-0.70
2018-03-17T15:33:42.360Z,-0.70
2018-03-17T15:36:14.239Z,-0.70
2018-03-17T15:38:47.142Z,-0.80
2018-03-17T15:41:19.036Z,-0.80
2018-03-17T15:43:50.991Z,-0.70
2018-03-17T15:46:22.891Z,-0.70
2018-03-17T15:48:54.782Z,-0.70
2018-03-17T15:51:26.662Z,-0.70
2018-03-17T15:53:58.556Z,-0.70
2018-03-17T15:56:30.448Z,-0.70
2018-03-17T15:59:03.103Z,-0.80
2018-03-17T16:01:34.999Z,-0.80
2018-03-17T16:04:06.896Z,-0.80
2018-03-17T16:06:38.780Z,-0.70
2018-03-17T16:09:10.667Z,-0.60
2018-03-17T16:11:43.319Z,-0.70
2018-03-17T16:14:15.523Z,-0.70
2018-03-17T16:16:47.428Z,-0.70
2018-03-17T16:19:19.360Z,-0.70
2018-03-17T16:21:51.232Z,-0.80
2018-03-17T16:24:23.119Z,-0.80
2018-03-17T16:26:55.020Z,-0.90
2018-03-17T16:29:28.017Z,-1.00
2018-03-17T16:31:59.887Z,-0.90
2018-03-17T16:34:32.049Z,-0.90
2018-03-17T16:37:03.916Z,-1.00
2018-03-17T16:39:35.812Z,-1.00
2018-03-17T16:42:07.925Z,-1.00
2018-03-17T16:44:39.809Z,-0.90
2018-03-17T16:47:11.690Z,-0.90
2018-03-17T16:49:43.578Z,-0.90
2018-03-17T16:52:16.234Z,-0.90
2018-03-17T16:54:48.135Z,-0.90
2018-03-17T16:57:20.775Z,-0.90
2018-03-17T16:59:52.691Z,-0.90
2018-03-17T17:02:24.775Z,-0.90
2018-03-17T17:04:56.685Z,-0.90
2018-03-17T17:07:28.547Z,-0.90
2018-03-17T17:10:01.204Z,-0.90
2018-03-17T17:12:33.076Z,-0.90
2018-03-17T17:15:05.272Z,-0.90
2018-03-17T17:17:37.164Z,-0.90
2018-03-17T17:20:09.065Z,-0.90
2018-03-17T17:22:40.935Z,-0.90
2018-03-17T17:25:13.624Z,-1.00
2018-03-17T17:27:46.304Z,-0.90
2018-03-17T17:30:18.229Z,-1.00
2018-03-17T17:32:50.298Z,-1.00
2018-03-17T17:35:22.406Z,-1.00
2018-03-17T17:37:54.286Z,-1.10
2018-03-17T17:40:26.167Z,-1.10
2018-03-17T17:42:58.055Z,-1.10
2018-03-17T17:45:29.957Z,-1.10
2018-03-17T17:48:01.838Z,-1.10
2018-03-17T17:50:33.732Z,-1.10
2018-03-17T17:53:05.620Z,-1.20
2018-03-17T17:55:38.319Z,-1.20
2018-03-17T17:58:10.210Z,-1.20
2018-03-17T18:00:42.146Z,-1.20
2018-03-17T18:03:14.014Z,-1.20
2018-03-17T18:05:46.316Z,-1.20
2018-03-17T18:08:18.198Z,-1.20
2018-03-17T18:10:50.856Z,-1.20
2018-03-17T18:13:22.759Z,-1.20
2018-03-17T18:15:54.649Z,-1.20
2018-03-17T18:18:26.532Z,-1.20
2018-03-17T18:20:58.425Z,-1.30
2018-03-17T18:23:31.068Z,-1.30
2018-03-17T18:26:03.003Z,-1.30
2018-03-17T18:28:35.142Z,-1.30
2018-03-17T18:31:07.053Z,-1.30
2018-03-17T18:33:38.942Z,-1.30
2018-03-17T18:36:11.599Z,-1.30
2018-03-17T18:38:43.703Z,-1.30
2018-03-17T18:41:15.592Z,-1.30
2018-03-17T18:43:47.534Z,-1.30
2018-03-17T18:46:19.388Z,-1.30
2018-03-17T18:48:51.550Z,-1.30
2018-03-17T18:51:23.447Z,-1.30
2018-03-17T18:53:55.320Z,-1.30
2018-03-17T18:56:27.424Z,-1.30
2018-03-17T18:58:59.869Z,-1.30
2018-03-17T19:01:31.760Z,-1.30
2018-03-17T19:04:04.646Z,-1.30
2018-03-17T19:06:36.818Z,-1.40
2018-03-17T19:09:08.990Z,-1.30
2018-03-17T19:11:40.880Z,-1.30
2018-03-17T19:14:13.107Z,-1.40
2018-03-17T19:16:45.004Z,-1.30
2018-03-17T19:19:17.131Z,-1.30
2018-03-17T19:21:49.299Z,-1.40
2018-03-17T19:24:21.244Z,-1.40
2018-03-17T19:26:53.955Z,-1.40
2018-03-17T19:29:25.792Z,-1.40
2018-03-17T19:31:58.687Z,-1.40
2018-03-17T19:34:30.591Z,-1.40
2018-03-17T19:37:02.496Z,-1.40
2018-03-17T19:39:35.393Z,-1.40
2018-03-17T19:42:07.285Z,-1.30
2018-03-17T19:44:39.415Z,-1.40
2018-03-17T19:47:11.311Z,-1.40
2018-03-17T19:49:43.207Z,-1.40
2018-03-17T19:52:15.099Z,-1.40
2018-03-17T19:54:46.971Z,-1.40
2018-03-17T19:57:18.855Z,-1.40
2018-03-17T19:59:50.737Z,-1.40
2018-03-17T20:02:22.628Z,-1.50
2018-03-17T20:04:55.268Z,-1.50
2018-03-17T20:07:27.200Z,-1.50
2018-03-17T20:09:59.123Z,-1.50
2018-03-17T20:12:31.779Z,-1.40
2018-03-17T20:15:03.655Z,-1.50
2018-03-17T20:17:36.561Z,-1.60
2018-03-17T20:20:08.448Z,-1.60
2018-03-17T20:22:40.331Z,-1.50
2018-03-17T20:25:12.222Z,-1.50
2018-03-17T20:27:45.119Z,-1.60
2018-03-17T20:30:16.995Z,-1.60
2018-03-17T20:32:50.144Z,-1.70
2018-03-17T20:35:22.024Z,-1.70
2018-03-17T20:37:55.047Z,-1.70
2018-03-17T20:40:26.925Z,-1.70
2018-03-17T20:42:58.821Z,-1.70
2018-03-17T20:45:31.479Z,-1.70
2018-03-17T20:48:03.376Z,-1.70
2018-03-17T20:50:35.268Z,-1.70
2018-03-17T20:53:07.214Z,-1.70
2018-03-17T20:55:39.091Z,-1.70
2018-03-17T20:58:11.225Z,-1.70
2018-03-17T21:00:43.132Z,-1.70
2018-03-17T21:03:15.028Z,-1.60
2018-03-17T21:05:47.664Z,-1.60
2018-03-17T21:08:19.559Z,-1.60
2018-03-17T21:10:51.427Z,-1.60
2018-03-17T21:13:24.081Z,-1.60
2018-03-17T21:15:55.963Z,-1.60
2018-03-17T21:18:29.058Z,-1.60
2018-03-17T21:21:01.712Z,-1.60
2018-03-17T21:23:33.596Z,-1.60
2018-03-17T21:26:06.327Z,-1.60
2018-03-17T21:28:38.207Z,-1.60
2018-03-17T21:31:10.161Z,-1.50
2018-03-17T21:33:42.076Z,-1.50
2018-03-17T21:36:13.947Z,-1.50
2018-03-17T21:38:45.861Z,-1.50
2018-03-17T21:41:17.747Z,-1.50
2018-03-17T21:43:49.635Z,-1.50
2018-03-17T21:46:21.804Z,-1.50
2018-03-17T21:48:53.876Z,-1.50
2018-03-17T21:51:25.881Z,-1.50
2018-03-17T21:53:58.551Z,-1.50
2018-03-17T21:56:30.428Z,-1.50
2018-03-17T21:59:03.885Z,-1.40
2018-03-17T22:01:37.536Z,-1.40
2018-03-17T22:04:09.444Z,-1.40
2018-03-17T22:06:41.568Z,-1.40
2018-03-17T22:09:13.512Z,-1.40
2018-03-17T22:11:47.584Z,-1.40
2018-03-17T22:14:19.471Z,-1.40
